Wednesday, August 20, 2014
10:48 UTC
  |  Log In   |  Register Free
Airport Search:

Furnace Creek Airport
(L06)

Furnace Creek Airport Diagram
No Airport Diagram Available

FAA data valid effective July 24, 2014 until September 18, 2014 (unless otherwise noted).

 
 
 
 
 
 
 
 
 
 
 
 
 
 

Current Aviation Weather for Furnace Creek Airport (L06)

The most recent METAR observation for KINS was updated at: 1833 UTC
METAR Summary (Translated METAR)
KINS
281833Z AUTO 04005KT 10SM BKN095 29/14 A3018 RMK AO2 LTG DSNT S
KVGT
(32.3 nm SE from KINS)
281853Z 14006KT 10SM CLR 32/14 A3011 RMK AO2 SLP185 T03220139
TAF Summary (Translated TAF)
KINS
2008/2109 10009KT 9999 SCT120 QNH2985INS TEMPO 2009/2011 VRB12G18KT -TSRA BKN090CB BECMG 2019/2020 12012G18KT 9999 SCT120 QNH2990INS BECMG 2103/2104 21006KT 9999 SCT120 QNH2995INS TX32/2021Z TN21/2012Z AMD 200840
KVGT
(32.3 nm SE from KINS)
200521Z 2006/2106 VRB06KT P6SM SCT120 FM202100 17011KT P6SM VCSH BKN120 FM210300 19010KT P6SM SCT120
  Airport Weather Conditions for L06

Current weather conditions are
not available for L06


The nearest NOAA weather station
is at INS, (58.7 nm NE from L06)
  
 Current Weather at INS
75° F
Light Rain
South winds at 6.9 mph
INS NOAA Radar

Pressure: 29.88 in
Humidity: 51%
Wind: South at 6.9 MPH (6 KT)
Dew Point: 55.4°F
Visibility: 10.00 mi


Airport Weather Forecast for L06

Translated METAR and TAF for KINS
Translated METAR for KINS (1042 UTC 20 August 2014)
found at http://aviationweather.gov/adds/metars/
 
METAR text: KINS 200958Z AUTO 14006KT 10SM SCT110 22/13 A2990 RMK AO2 RAE0859 SLP077 P0000 T02220126 VISNO RWY08 $
Conditions at: KINS (INDIAN SPRINGS , NV, US) observed 0958 UTC 20 August 2014
Temperature: 22.2°C (72°F)
Dewpoint: 12.6°C (55°F) [RH = 55%]
Pressure (altimeter): 29.90 inches Hg (1012.6 mb)
[Sea-level pressure: 1007.7 mb]
Winds: from the SE (140 degrees) at 7 MPH (6 knots; 3.1 m/s)
Visibility: 10 or more miles (16+ km)
Ceiling: at least 12,000 feet AGL
Clouds: scattered clouds at 11000 feet AGL
Weather:
SOME DATA ABOVE MAY BE INACCURATE!!!
"$" is an indication the sensor requires maintenance
Translated TAF for KINS
Forecast for: KINS (INDIAN SPRINGS , NV, US)
TAF Text: TAF AMD KINS 2008/2109 10009KT 9999 SCT120 QNH2985INS
Forecast period: 0800 to 1900 UTC 20 August 2014
Forecast type: FROM: standard forecast or significant change
Winds: from the E (100 degrees) at 10 MPH (9 knots; 4.7 m/s)
Visibility: 6 or more miles (10+ km)
Clouds: scattered clouds at 12000 feet AGL
Weather: no significant weather forecast for this period
TAF Text: TEMPO 2009/2011 VRB12G18KT -TSRA BKN090CB
Forecast period: 0900 to 1100 UTC 20 August 2014
Forecast type: TEMPORARY: The following changes expected for less than half the time period
Winds: variable direction winds at 14 MPH (12 knots; 6.2 m/s)
gusting to 21 MPH (18 knots; 9.4 m/s)
Ceiling: 9000 feet AGL
Clouds: broken clouds at 9000 feet AGL
Weather: -TSRA  (light rain associated with thunderstorm(s))
TAF Text: BECMG 2019/2020 12012G18KT 9999 SCT120 QNH2990INS
Forecast period: 1900 UTC 20 August 2014 to 0300 UTC 21 August 2014
Forecast type: BECOMING: Conditions expected to become as follows by 2000 UTC 20 August 2014
Winds: from the ESE (120 degrees) at 14 MPH (12 knots; 6.2 m/s)
gusting to 21 MPH (18 knots; 9.4 m/s)
Visibility: 6 or more miles (10+ km)
Clouds: scattered clouds at 12000 feet AGL
Weather: no significant weather forecast for this period
TAF Text: BECMG 2103/2104 21006KT 9999 SCT120 QNH2995INS TX32/2021Z TN21/2012Z AMD 200840
Forecast period: 0300 to 0900 UTC 21 August 2014
Forecast type: BECOMING: Conditions expected to become as follows by 0400 UTC 21 August 2014
Winds: from the SSW (210 degrees) at 7 MPH (6 knots; 3.1 m/s)
Visibility: 6 or more miles (10+ km)
Clouds: scattered clouds at 12000 feet AGL
Weather: no significant weather forecast for this period

Find All Airport Services Find A Hotel Find A Rental Car Find A Golf Course Find A Restaurant $100 Hamburger



FBO's on the Field
FBO Company Facility Photos Services Transportation Aviation Fuel Prices: Prices include tax
Catering Weather Repair Courtesy Rental Type 100LL JetA JetA+ MOGAS 8087
 
Add another FBO Facility Photos Catering Weather Repair Courtesy Rental Type 100LL JetA JetA+ MOGAS 8087
Services Transportation Aviation Fuel Prices: Prices include tax
There are no FBO's currently reporting fuel at L06. List your FBO now


GlobalAir.com Airport Resource Center model-print
model-print
model-print
model-print